sensor_id;sensor_type;location;lat;lon;timestamp;pressure;altitude;pressure_sealevel;temperature;humidity
78299;BME280;67556;55.656;12.590;2023-04-03T00:02:16;103438.91;;;2.46;55.03
78299;BME280;67556;55.656;12.590;2023-04-03T00:04:43;103434.72;;;2.48;54.61
78299;BME280;67556;55.656;12.590;2023-04-03T00:07:10;103440.47;;;2.53;55.26
78299;BME280;67556;55.656;12.590;2023-04-03T00:09:37;103441.59;;;2.55;54.96
78299;BME280;67556;55.656;12.590;2023-04-03T00:12:05;103447.78;;;2.55;54.64
78299;BME280;67556;55.656;12.590;2023-04-03T00:14:32;103449.56;;;2.47;53.48
78299;BME280;67556;55.656;12.590;2023-04-03T00:16:58;103439.56;;;2.52;53.56
78299;BME280;67556;55.656;12.590;2023-04-03T00:19:26;103447.22;;;2.58;53.09
78299;BME280;67556;55.656;12.590;2023-04-03T00:21:52;103450.41;;;2.55;53.11
78299;BME280;67556;55.656;12.590;2023-04-03T00:24:19;103450.28;;;2.54;52.35
78299;BME280;67556;55.656;12.590;2023-04-03T00:26:45;103452.47;;;2.58;52.70
78299;BME280;67556;55.656;12.590;2023-04-03T00:29:13;103449.06;;;2.59;52.14
78299;BME280;67556;55.656;12.590;2023-04-03T00:31:40;103461.63;;;2.61;52.21
78299;BME280;67556;55.656;12.590;2023-04-03T00:34:06;103455.91;;;2.65;51.87
78299;BME280;67556;55.656;12.590;2023-04-03T00:36:32;103460.00;;;2.70;51.28
78299;BME280;67556;55.656;12.590;2023-04-03T00:38:59;103458.31;;;2.71;51.20
78299;BME280;67556;55.656;12.590;2023-04-03T00:41:25;103463.91;;;2.74;51.40
78299;BME280;67556;55.656;12.590;2023-04-03T00:43:52;103465.00;;;2.76;51.27
78299;BME280;67556;55.656;12.590;2023-04-03T00:46:20;103454.19;;;2.82;51.80
78299;BME280;67556;55.656;12.590;2023-04-03T00:48:47;103461.16;;;2.81;51.63
78299;BME280;67556;55.656;12.590;2023-04-03T00:51:17;103455.41;;;2.77;51.41
78299;BME280;67556;55.656;12.590;2023-04-03T00:53:47;103461.44;;;2.75;51.65
78299;BME280;67556;55.656;12.590;2023-04-03T00:56:18;103466.28;;;2.80;51.81
78299;BME280;67556;55.656;12.590;2023-04-03T00:58:51;103461.94;;;2.80;52.33
78299;BME280;67556;55.656;12.590;2023-04-03T01:01:24;103467.69;;;2.85;52.01
78299;BME280;67556;55.656;12.590;2023-04-03T01:03:51;103475.59;;;2.85;52.25
78299;BME280;67556;55.656;12.590;2023-04-03T01:06:21;103482.56;;;2.84;52.18
78299;BME280;67556;55.656;12.590;2023-04-03T01:08:51;103469.06;;;2.81;52.14
78299;BME280;67556;55.656;12.590;2023-04-03T01:11:19;103476.53;;;2.69;52.72
78299;BME280;67556;55.656;12.590;2023-04-03T01:13:45;103481.38;;;2.73;52.62
78299;BME280;67556;55.656;12.590;2023-04-03T01:16:12;103451.94;;;2.69;52.93
78299;BME280;67556;55.656;12.590;2023-04-03T01:18:40;103479.25;;;2.78;53.86
78299;BME280;67556;55.656;12.590;2023-04-03T01:21:37;103473.81;;;2.77;54.47
78299;BME280;67556;55.656;12.590;2023-04-03T01:24:21;103485.63;;;2.64;55.19
78299;BME280;67556;55.656;12.590;2023-04-03T01:26:51;103483.00;;;2.64;55.75
78299;BME280;67556;55.656;12.590;2023-04-03T01:29:18;103485.81;;;2.50;56.79
78299;BME280;67556;55.656;12.590;2023-04-03T01:31:49;103484.03;;;2.58;56.10
78299;BME280;67556;55.656;12.590;2023-04-03T01:34:15;103481.91;;;2.62;56.28
78299;BME280;67556;55.656;12.590;2023-04-03T01:36:42;103478.84;;;2.66;56.51
78299;BME280;67556;55.656;12.590;2023-04-03T01:39:09;103484.97;;;2.58;56.73
78299;BME280;67556;55.656;12.590;2023-04-03T01:41:35;103483.41;;;2.60;57.40
78299;BME280;67556;55.656;12.590;2023-04-03T01:44:02;103485.19;;;2.53;57.10
78299;BME280;67556;55.656;12.590;2023-04-03T01:46:30;103483.13;;;2.57;56.53
78299;BME280;67556;55.656;12.590;2023-04-03T01:48:57;103485.41;;;2.54;57.22
78299;BME280;67556;55.656;12.590;2023-04-03T01:51:24;103486.81;;;2.59;57.00
78299;BME280;67556;55.656;12.590;2023-04-03T01:53:50;103483.41;;;2.60;56.44
78299;BME280;67556;55.656;12.590;2023-04-03T01:56:17;103477.22;;;2.60;56.49
78299;BME280;67556;55.656;12.590;2023-04-03T01:58:43;103491.75;;;2.56;57.13
78299;BME280;67556;55.656;12.590;2023-04-03T02:01:10;103482.69;;;2.61;57.21
78299;BME280;67556;55.656;12.590;2023-04-03T02:03:36;103485.91;;;2.59;56.76
78299;BME280;67556;55.656;12.590;2023-04-03T02:06:04;103491.75;;;2.56;56.88
78299;BME280;67556;55.656;12.590;2023-04-03T02:08:32;103485.75;;;2.57;56.77
78299;BME280;67556;55.656;12.590;2023-04-03T02:10:58;103487.25;;;2.55;57.14
78299;BME280;67556;55.656;12.590;2023-04-03T02:13:25;103487.09;;;2.54;56.63
78299;BME280;67556;55.656;12.590;2023-04-03T02:15:52;103490.31;;;2.51;56.78
78299;BME280;67556;55.656;12.590;2023-04-03T02:18:18;103500.06;;;2.52;56.82
78299;BME280;67556;55.656;12.590;2023-04-03T02:20:46;103493.53;;;2.48;56.88
78299;BME280;67556;55.656;12.590;2023-04-03T02:23:14;103489.44;;;2.43;57.25
78299;BME280;67556;55.656;12.590;2023-04-03T02:25:40;103498.53;;;2.38;57.80
78299;BME280;67556;55.656;12.590;2023-04-03T02:28:07;103501.66;;;2.43;56.95
78299;BME280;67556;55.656;12.590;2023-04-03T02:30:33;103503.53;;;2.44;57.35
78299;BME280;67556;55.656;12.590;2023-04-03T02:33:00;103495.56;;;2.35;57.11
78299;BME280;67556;55.656;12.590;2023-04-03T02:35:26;103505.34;;;2.36;56.63
78299;BME280;67556;55.656;12.590;2023-04-03T02:37:53;103507.25;;;2.30;56.44
78299;BME280;67556;55.656;12.590;2023-04-03T02:40:21;103504.47;;;2.29;56.44
78299;BME280;67556;55.656;12.590;2023-04-03T02:42:47;103516.09;;;2.31;56.84
78299;BME280;67556;55.656;12.590;2023-04-03T02:45:14;103519.63;;;2.31;56.59
78299;BME280;67556;55.656;12.590;2023-04-03T02:47:40;103513.28;;;2.29;56.61
78299;BME280;67556;55.656;12.590;2023-04-03T02:50:07;103503.53;;;2.28;57.02
78299;BME280;67556;55.656;12.590;2023-04-03T02:52:34;103512.59;;;2.23;56.70
78299;BME280;67556;55.656;12.590;2023-04-03T02:55:00;103514.13;;;2.21;56.73
78299;BME280;67556;55.656;12.590;2023-04-03T02:57:29;103512.28;;;2.20;56.91
78299;BME280;67556;55.656;12.590;2023-04-03T02:59:55;103507.16;;;2.21;56.34
78299;BME280;67556;55.656;12.590;2023-04-03T03:02:21;103509.03;;;2.22;56.52
78299;BME280;67556;55.656;12.590;2023-04-03T03:04:48;103513.00;;;2.19;56.58
78299;BME280;67556;55.656;12.590;2023-04-03T03:07:15;103509.28;;;2.17;56.23
78299;BME280;67556;55.656;12.590;2023-04-03T03:09:45;103513.25;;;2.13;56.00
78299;BME280;67556;55.656;12.590;2023-04-03T03:12:11;103506.16;;;2.12;56.38
78299;BME280;67556;55.656;12.590;2023-04-03T03:14:39;103505.44;;;2.06;55.93
78299;BME280;67556;55.656;12.590;2023-04-03T03:17:07;103513.09;;;2.12;55.63
78299;BME280;67556;55.656;12.590;2023-04-03T03:19:34;103510.28;;;2.10;55.73
78299;BME280;67556;55.656;12.590;2023-04-03T03:22:00;103516.31;;;2.09;55.92
78299;BME280;67556;55.656;12.590;2023-04-03T03:24:27;103517.50;;;2.04;55.93
78299;BME280;67556;55.656;12.590;2023-04-03T03:26:53;103516.72;;;2.05;56.53
78299;BME280;67556;55.656;12.590;2023-04-03T03:29:20;103513.16;;;2.05;56.19
78299;BME280;67556;55.656;12.590;2023-04-03T03:31:48;103512.59;;;2.07;56.81
78299;BME280;67556;55.656;12.590;2023-04-03T03:34:15;103517.84;;;2.07;56.47
78299;BME280;67556;55.656;12.590;2023-04-03T03:36:42;103519.34;;;2.05;57.19
78299;BME280;67556;55.656;12.590;2023-04-03T03:39:11;103509.66;;;1.97;57.76
78299;BME280;67556;55.656;12.590;2023-04-03T03:41:38;103511.88;;;2.01;57.54
78299;BME280;67556;55.656;12.590;2023-04-03T03:44:04;103513.06;;;1.96;58.05
78299;BME280;67556;55.656;12.590;2023-04-03T03:46:31;103519.09;;;1.95;58.15
78299;BME280;67556;55.656;12.590;2023-04-03T03:48:59;103526.97;;;1.95;58.35
78299;BME280;67556;55.656;12.590;2023-04-03T03:51:29;103521.00;;;1.89;58.56
78299;BME280;67556;55.656;12.590;2023-04-03T03:53:55;103526.59;;;1.92;58.02
78299;BME280;67556;55.656;12.590;2023-04-03T03:56:22;103527.94;;;1.88;57.50
78299;BME280;67556;55.656;12.590;2023-04-03T03:58:49;103527.19;;;1.89;56.92
78299;BME280;67556;55.656;12.590;2023-04-03T04:01:16;103526.84;;;1.86;56.67
78299;BME280;67556;55.656;12.590;2023-04-03T04:03:43;103527.03;;;1.88;56.38
78299;BME280;67556;55.656;12.590;2023-04-03T04:06:11;103533.03;;;1.87;56.66
78299;BME280;67556;55.656;12.590;2023-04-03T04:08:38;103524.81;;;1.84;56.54
78299;BME280;67556;55.656;12.590;2023-04-03T04:11:04;103537.19;;;1.85;56.55
78299;BME280;67556;55.656;12.590;2023-04-03T04:13:34;103521.50;;;1.78;57.14
78299;BME280;67556;55.656;12.590;2023-04-03T04:16:01;103539.47;;;1.82;56.98
78299;BME280;67556;55.656;12.590;2023-04-03T04:18:28;103535.72;;;1.80;57.20
78299;BME280;67556;55.656;12.590;2023-04-03T04:20:54;103541.13;;;1.81;57.69
78299;BME280;67556;55.656;12.590;2023-04-03T04:23:22;103534.44;;;1.76;57.08
78299;BME280;67556;55.656;12.590;2023-04-03T04:25:49;103519.47;;;1.68;57.04
78299;BME280;67556;55.656;12.590;2023-04-03T04:28:17;103532.00;;;1.78;57.23
78299;BME280;67556;55.656;12.590;2023-04-03T04:30:44;103545.13;;;1.78;56.65
78299;BME280;67556;55.656;12.590;2023-04-03T04:33:10;103544.94;;;1.76;57.24
78299;BME280;67556;55.656;12.590;2023-04-03T04:35:38;103547.41;;;1.74;56.60
78299;BME280;67556;55.656;12.590;2023-04-03T04:38:05;103551.72;;;1.74;57.03
78299;BME280;67556;55.656;12.590;2023-04-03T04:40:35;103553.44;;;1.73;57.10
78299;BME280;67556;55.656;12.590;2023-04-03T04:43:02;103552.31;;;1.71;57.06
78299;BME280;67556;55.656;12.590;2023-04-03T04:45:29;103560.94;;;1.70;57.08
78299;BME280;67556;55.656;12.590;2023-04-03T04:47:56;103561.72;;;1.69;57.83
78299;BME280;67556;55.656;12.590;2023-04-03T04:50:22;103567.53;;;1.67;58.03
78299;BME280;67556;55.656;12.590;2023-04-03T04:52:48;103571.47;;;1.70;57.44
78299;BME280;67556;55.656;12.590;2023-04-03T04:55:15;103567.91;;;1.70;58.07
78299;BME280;67556;55.656;12.590;2023-04-03T04:57:42;103569.00;;;1.72;57.42
78299;BME280;67556;55.656;12.590;2023-04-03T05:00:10;103572.22;;;1.69;57.56
78299;BME280;67556;55.656;12.590;2023-04-03T05:02:37;103575.78;;;1.70;57.76
78299;BME280;67556;55.656;12.590;2023-04-03T05:05:04;103571.28;;;1.69;58.18
78299;BME280;67556;55.656;12.590;2023-04-03T05:07:30;103577.88;;;1.65;57.81
78299;BME280;67556;55.656;12.590;2023-04-03T05:09:57;103576.72;;;1.70;57.59
78299;BME280;67556;55.656;12.590;2023-04-03T05:12:24;103587.59;;;1.73;57.01
78299;BME280;67556;55.656;12.590;2023-04-03T05:14:51;103588.31;;;1.72;56.87
78299;BME280;67556;55.656;12.590;2023-04-03T05:17:18;103580.78;;;1.75;56.00
78299;BME280;67556;55.656;12.590;2023-04-03T05:19:44;103576.25;;;1.82;56.61
78299;BME280;67556;55.656;12.590;2023-04-03T05:22:11;103582.56;;;1.91;55.37
78299;BME280;67556;55.656;12.590;2023-04-03T05:24:37;103587.69;;;2.05;55.29
78299;BME280;67556;55.656;12.590;2023-04-03T05:27:04;103581.72;;;2.22;55.48
78299;BME280;67556;55.656;12.590;2023-04-03T05:29:30;103580.31;;;2.33;54.85
78299;BME280;67556;55.656;12.590;2023-04-03T05:31:58;103589.66;;;2.38;54.56
78299;BME280;67556;55.656;12.590;2023-04-03T05:34:25;103580.41;;;2.41;54.71
78299;BME280;67556;55.656;12.590;2023-04-03T05:36:51;103580.16;;;2.47;54.31
78299;BME280;67556;55.656;12.590;2023-04-03T05:39:18;103578.31;;;2.46;54.03
78299;BME280;67556;55.656;12.590;2023-04-03T05:41:44;103574.53;;;2.44;53.11
78299;BME280;67556;55.656;12.590;2023-04-03T05:44:11;103576.09;;;2.42;52.55
78299;BME280;67556;55.656;12.590;2023-04-03T05:46:37;103579.81;;;2.44;52.89
78299;BME280;67556;55.656;12.590;2023-04-03T05:49:05;103577.53;;;2.47;53.16
78299;BME280;67556;55.656;12.590;2023-04-03T05:51:33;103578.97;;;2.52;52.67
78299;BME280;67556;55.656;12.590;2023-04-03T05:54:06;103584.31;;;2.61;52.96
78299;BME280;67556;55.656;12.590;2023-04-03T05:56:35;103592.84;;;2.58;52.96
78299;BME280;67556;55.656;12.590;2023-04-03T05:59:02;103587.16;;;2.62;52.69
78299;BME280;67556;55.656;12.590;2023-04-03T06:01:28;103586.53;;;2.65;53.08
78299;BME280;67556;55.656;12.590;2023-04-03T06:03:55;103582.56;;;2.68;53.34
78299;BME280;67556;55.656;12.590;2023-04-03T06:06:25;103575.78;;;2.70;53.44
78299;BME280;67556;55.656;12.590;2023-04-03T06:08:51;103578.31;;;2.78;52.86
78299;BME280;67556;55.656;12.590;2023-04-03T06:11:18;103574.94;;;2.79;53.28
78299;BME280;67556;55.656;12.590;2023-04-03T06:13:45;103580.53;;;2.82;53.36
78299;BME280;67556;55.656;12.590;2023-04-03T06:16:12;103584.28;;;2.84;53.02
78299;BME280;67556;55.656;12.590;2023-04-03T06:18:40;103587.69;;;2.83;52.28
78299;BME280;67556;55.656;12.590;2023-04-03T06:21:06;103588.59;;;2.83;53.40
78299;BME280;67556;55.656;12.590;2023-04-03T06:23:34;103589.53;;;2.84;53.59
78299;BME280;67556;55.656;12.590;2023-04-03T06:26:01;103580.22;;;2.79;53.25
78299;BME280;67556;55.656;12.590;2023-04-03T06:28:27;103583.84;;;2.88;53.98
78299;BME280;67556;55.656;12.590;2023-04-03T06:30:54;103586.84;;;2.91;53.59
78299;BME280;67556;55.656;12.590;2023-04-03T06:33:20;103589.00;;;2.95;53.91
78299;BME280;67556;55.656;12.590;2023-04-03T06:35:46;103588.28;;;2.96;54.12
78299;BME280;67556;55.656;12.590;2023-04-03T06:38:13;103591.03;;;2.82;53.46
78299;BME280;67556;55.656;12.590;2023-04-03T06:40:41;103597.38;;;2.91;52.78
78299;BME280;67556;55.656;12.590;2023-04-03T06:43:07;103591.75;;;2.88;53.27
78299;BME280;67556;55.656;12.590;2023-04-03T06:45:34;103603.38;;;2.90;54.16
78299;BME280;67556;55.656;12.590;2023-04-03T06:48:01;103596.31;;;2.82;54.21
78299;BME280;67556;55.656;12.590;2023-04-03T06:50:27;103586.13;;;2.85;53.97
78299;BME280;67556;55.656;12.590;2023-04-03T06:52:54;103590.91;;;2.96;53.28
78299;BME280;67556;55.656;12.590;2023-04-03T06:55:21;103589.88;;;2.87;53.88
78299;BME280;67556;55.656;12.590;2023-04-03T06:57:49;103583.84;;;2.88;53.94
78299;BME280;67556;55.656;12.590;2023-04-03T07:00:16;103592.59;;;2.95;53.01
78299;BME280;67556;55.656;12.590;2023-04-03T07:02:43;103596.16;;;2.96;53.77
78299;BME280;67556;55.656;12.590;2023-04-03T07:05:10;103589.53;;;2.84;53.69
78299;BME280;67556;55.656;12.590;2023-04-03T07:07:37;103594.53;;;2.89;53.99
78299;BME280;67556;55.656;12.590;2023-04-03T07:10:04;103597.25;;;2.98;54.01
78299;BME280;67556;55.656;12.590;2023-04-03T07:12:31;103596.16;;;2.96;53.55
78299;BME280;67556;55.656;12.590;2023-04-03T07:14:59;103593.25;;;3.02;52.91
78299;BME280;67556;55.656;12.590;2023-04-03T07:17:26;103587.91;;;2.93;53.29
78299;BME280;67556;55.656;12.590;2023-04-03T07:19:53;103591.97;;;2.98;53.14
78299;BME280;67556;55.656;12.590;2023-04-03T07:22:19;103594.44;;;2.81;53.99
78299;BME280;67556;55.656;12.590;2023-04-03T07:24:46;103598.63;;;2.79;54.60
78299;BME280;67556;55.656;12.590;2023-04-03T07:27:13;103605.84;;;2.88;53.29
78299;BME280;67556;55.656;12.590;2023-04-03T07:29:39;103607.53;;;2.88;53.11
78299;BME280;67556;55.656;12.590;2023-04-03T07:32:07;103599.81;;;2.89;52.52
78299;BME280;67556;55.656;12.590;2023-04-03T07:34:34;103598.94;;;2.97;52.15
78299;BME280;67556;55.656;12.590;2023-04-03T07:37:01;103599.53;;;2.95;51.39
78299;BME280;67556;55.656;12.590;2023-04-03T07:39:31;103607.00;;;2.99;50.47
78299;BME280;67556;55.656;12.590;2023-04-03T07:41:58;103603.28;;;2.97;50.19
78299;BME280;67556;55.656;12.590;2023-04-03T07:44:25;103602.88;;;3.01;50.12
78299;BME280;67556;55.656;12.590;2023-04-03T07:46:52;103607.44;;;2.95;50.32
78299;BME280;67556;55.656;12.590;2023-04-03T07:49:21;103601.44;;;2.96;50.29
78299;BME280;67556;55.656;12.590;2023-04-03T07:51:49;103611.09;;;2.72;48.83
78299;BME280;67556;55.656;12.590;2023-04-03T07:54:16;103606.53;;;2.79;48.84
78299;BME280;67556;55.656;12.590;2023-04-03T07:56:43;103613.16;;;2.91;48.48
78299;BME280;67556;55.656;12.590;2023-04-03T07:59:10;103605.13;;;2.82;48.69
78299;BME280;67556;55.656;12.590;2023-04-03T08:01:37;103600.00;;;2.91;49.82
78299;BME280;67556;55.656;12.590;2023-04-03T08:04:03;103621.28;;;3.01;50.11
78299;BME280;67556;55.656;12.590;2023-04-03T08:06:33;103614.16;;;3.00;50.32
78299;BME280;67556;55.656;12.590;2023-04-03T08:09:02;103615.00;;;2.92;50.05
78299;BME280;67556;55.656;12.590;2023-04-03T08:11:29;103608.56;;;2.97;50.57
78299;BME280;67556;55.656;12.590;2023-04-03T08:13:56;103619.84;;;2.96;50.61
78299;BME280;67556;55.656;12.590;2023-04-03T08:16:24;103613.16;;;2.91;50.52
78299;BME280;67556;55.656;12.590;2023-04-03T08:18:52;103616.28;;;2.95;50.19
78299;BME280;67556;55.656;12.590;2023-04-03T08:21:18;103597.59;;;2.85;50.24
78299;BME280;67556;55.656;12.590;2023-04-03T08:23:48;103612.63;;;3.02;49.62
78299;BME280;67556;55.656;12.590;2023-04-03T08:26:17;103616.81;;;3.00;49.40
78299;BME280;67556;55.656;12.590;2023-04-03T08:28:44;103620.09;;;3.06;48.88
78299;BME280;67556;55.656;12.590;2023-04-03T08:31:13;103615.19;;;3.09;48.34
78299;BME280;67556;55.656;12.590;2023-04-03T08:33:40;103624.84;;;3.02;48.42
78299;BME280;67556;55.656;12.590;2023-04-03T08:36:16;103620.59;;;2.95;48.53
78299;BME280;67556;55.656;12.590;2023-04-03T08:38:43;103628.59;;;3.04;49.45
78299;BME280;67556;55.656;12.590;2023-04-03T08:41:14;103620.44;;;2.93;48.12
78299;BME280;67556;55.656;12.590;2023-04-03T08:43:53;103624.09;;;3.03;49.42
78299;BME280;67556;55.656;12.590;2023-04-03T08:46:24;103618.91;;;3.11;48.39
78299;BME280;67556;55.656;12.590;2023-04-03T08:48:53;103619.59;;;3.17;49.33
78299;BME280;67556;55.656;12.590;2023-04-03T08:51:21;103618.66;;;3.17;47.05
78299;BME280;67556;55.656;12.590;2023-04-03T08:53:55;103617.47;;;3.22;47.05
78299;BME280;67556;55.656;12.590;2023-04-03T08:56:24;103616.03;;;3.17;47.84
78299;BME280;67556;55.656;12.590;2023-04-03T08:58:55;103614.97;;;3.23;48.72
78299;BME280;67556;55.656;12.590;2023-04-03T09:01:25;103610.06;;;3.27;48.15
78299;BME280;67556;55.656;12.590;2023-04-03T09:03:53;103613.13;;;3.22;49.28
78299;BME280;67556;55.656;12.590;2023-04-03T09:06:21;103605.13;;;3.30;48.91
78299;BME280;67556;55.656;12.590;2023-04-03T09:08:53;103602.38;;;3.37;48.63
78299;BME280;67556;55.656;12.590;2023-04-03T09:11:26;103617.53;;;3.31;49.18
78299;BME280;67556;55.656;12.590;2023-04-03T09:13:59;103601.72;;;3.31;48.78
78299;BME280;67556;55.656;12.590;2023-04-03T09:16:35;103601.94;;;3.41;49.05
78299;BME280;67556;55.656;12.590;2023-04-03T09:19:10;103585.66;;;3.36;48.82
78299;BME280;67556;55.656;12.590;2023-04-03T09:21:39;103604.84;;;3.51;48.50
78299;BME280;67556;55.656;12.590;2023-04-03T09:24:09;103599.13;;;3.55;48.91
78299;BME280;67556;55.656;12.590;2023-04-03T09:26:42;103606.59;;;3.59;47.50
78299;BME280;67556;55.656;12.590;2023-04-03T09:29:14;103600.41;;;3.59;47.91
78299;BME280;67556;55.656;12.590;2023-04-03T09:31:47;103594.84;;;3.64;47.77
78299;BME280;67556;55.656;12.590;2023-04-03T09:34:21;103589.59;;;3.64;47.14
78299;BME280;67556;55.656;12.590;2023-04-03T09:36:50;103583.88;;;3.68;46.18
78299;BME280;67556;55.656;12.590;2023-04-03T09:39:18;103593.69;;;3.78;44.29
78299;BME280;67556;55.656;12.590;2023-04-03T09:42:02;103595.09;;;3.83;44.67
78299;BME280;67556;55.656;12.590;2023-04-03T09:44:35;103572.22;;;3.66;41.37
78299;BME280;67556;55.656;12.590;2023-04-03T09:47:18;103584.06;;;3.79;44.97
78299;BME280;67556;55.656;12.590;2023-04-03T09:49:45;103581.00;;;3.83;45.21
78299;BME280;67556;55.656;12.590;2023-04-03T09:52:19;103580.41;;;3.85;45.60
78299;BME280;67556;55.656;12.590;2023-04-03T09:54:45;103579.09;;;3.97;46.12
78299;BME280;67556;55.656;12.590;2023-04-03T09:57:14;103581.66;;;3.89;43.30
78299;BME280;67556;55.656;12.590;2023-04-03T09:59:45;103577.31;;;3.89;43.03
78299;BME280;67556;55.656;12.590;2023-04-03T10:05:03;103577.91;;;3.87;42.09
78299;BME280;67556;55.656;12.590;2023-04-03T10:07:34;103565.19;;;3.83;44.21
78299;BME280;67556;55.656;12.590;2023-04-03T10:10:14;103574.59;;;3.72;43.53
78299;BME280;67556;55.656;12.590;2023-04-03T10:12:44;103565.63;;;3.79;44.11
78299;BME280;67556;55.656;12.590;2023-04-03T10:15:13;103559.81;;;3.90;43.72
78299;BME280;67556;55.656;12.590;2023-04-03T10:17:50;103570.72;;;4.02;43.80
78299;BME280;67556;55.656;12.590;2023-04-03T10:20:27;103558.81;;;4.05;43.47
78299;BME280;67556;55.656;12.590;2023-04-03T10:23:05;103549.22;;;4.14;43.66
78299;BME280;67556;55.656;12.590;2023-04-03T10:25:46;103554.16;;;4.11;43.51
78299;BME280;67556;55.656;12.590;2023-04-03T10:28:21;103551.44;;;4.27;45.04
78299;BME280;67556;55.656;12.590;2023-04-03T10:30:54;103549.41;;;4.24;45.42
78299;BME280;67556;55.656;12.590;2023-04-03T10:33:36;103544.00;;;4.32;44.77
78299;BME280;67556;55.656;12.590;2023-04-03T10:36:16;103546.94;;;4.26;46.08
78299;BME280;67556;55.656;12.590;2023-04-03T10:38:51;103544.59;;;4.29;45.41
78299;BME280;67556;55.656;12.590;2023-04-03T10:41:24;103543.03;;;4.22;45.14
78299;BME280;67556;55.656;12.590;2023-04-03T10:44:02;103538.38;;;4.29;43.47
78299;BME280;67556;55.656;12.590;2023-04-03T10:46:35;103536.53;;;4.28;43.98
78299;BME280;67556;55.656;12.590;2023-04-03T10:49:17;103535.31;;;4.41;44.56
78299;BME280;67556;55.656;12.590;2023-04-03T10:51:51;103538.41;;;4.37;44.30
78299;BME280;67556;55.656;12.590;2023-04-03T10:54:24;103532.88;;;4.43;43.64
78299;BME280;67556;55.656;12.590;2023-04-03T10:56:53;103533.47;;;4.40;42.99
78299;BME280;67556;55.656;12.590;2023-04-03T10:59:26;103534.41;;;4.49;45.38
78299;BME280;67556;55.656;12.590;2023-04-03T11:01:56;103535.66;;;4.53;43.97
78299;BME280;67556;55.656;12.590;2023-04-03T11:04:27;103537.25;;;4.68;43.74
78299;BME280;67556;55.656;12.590;2023-04-03T11:07:00;103524.81;;;4.76;43.03
78299;BME280;67556;55.656;12.590;2023-04-03T11:09:30;103533.38;;;4.73;41.23
78299;BME280;67556;55.656;12.590;2023-04-03T11:12:02;103526.38;;;4.65;40.25
78299;BME280;67556;55.656;12.590;2023-04-03T11:14:33;103518.00;;;4.69;42.72
78299;BME280;67556;55.656;12.590;2023-04-03T11:17:07;103523.88;;;4.75;41.94
78299;BME280;67556;55.656;12.590;2023-04-03T11:19:41;103523.13;;;4.77;42.08
78299;BME280;67556;55.656;12.590;2023-04-03T11:22:10;103525.13;;;4.88;41.80
78299;BME280;67556;55.656;12.590;2023-04-03T11:24:42;103517.06;;;4.95;39.03
78299;BME280;67556;55.656;12.590;2023-04-03T11:27:12;103507.75;;;4.81;38.06
78299;BME280;67556;55.656;12.590;2023-04-03T11:29:46;103513.19;;;4.91;36.87
78299;BME280;67556;55.656;12.590;2023-04-03T11:32:29;103517.38;;;5.07;38.51
78299;BME280;67556;55.656;12.590;2023-04-03T11:35:00;103514.28;;;5.11;38.72
78299;BME280;67556;55.656;12.590;2023-04-03T11:37:33;103510.84;;;5.20;39.29
78299;BME280;67556;55.656;12.590;2023-04-03T11:40:03;103510.34;;;5.33;38.98
78299;BME280;67556;55.656;12.590;2023-04-03T11:42:33;103507.09;;;5.36;38.06
78299;BME280;67556;55.656;12.590;2023-04-03T11:45:34;103499.59;;;5.49;38.75
78299;BME280;67556;55.656;12.590;2023-04-03T11:48:03;103501.13;;;5.56;37.63
78299;BME280;67556;55.656;12.590;2023-04-03T11:50:43;103509.34;;;5.67;39.03
78299;BME280;67556;55.656;12.590;2023-04-03T11:53:34;103506.22;;;5.71;35.91
78299;BME280;67556;55.656;12.590;2023-04-03T11:59:23;103493.31;;;5.74;34.44
78299;BME280;67556;55.656;12.590;2023-04-03T12:01:54;103497.94;;;5.86;35.87
78299;BME280;67556;55.656;12.590;2023-04-03T12:04:23;103500.41;;;5.93;34.27
78299;BME280;67556;55.656;12.590;2023-04-03T12:07:14;103496.50;;;6.25;35.40
78299;BME280;67556;55.656;12.590;2023-04-03T12:10:00;103485.63;;;6.22;34.30
78299;BME280;67556;55.656;12.590;2023-04-03T12:12:30;103480.53;;;6.43;34.25
78299;BME280;67556;55.656;12.590;2023-04-03T12:17:52;103483.84;;;6.59;34.25
78299;BME280;67556;55.656;12.590;2023-04-03T12:20:52;103459.13;;;6.69;33.81
78299;BME280;67556;55.656;12.590;2023-04-03T12:23:30;103467.94;;;6.97;33.90
78299;BME280;67556;55.656;12.590;2023-04-03T12:26:18;103467.81;;;6.95;33.54
78299;BME280;67556;55.656;12.590;2023-04-03T12:28:48;103460.13;;;6.98;30.44
78299;BME280;67556;55.656;12.590;2023-04-03T12:31:19;103460.75;;;7.15;32.33
78299;BME280;67556;55.656;12.590;2023-04-03T12:34:12;103460.72;;;7.34;31.71
78299;BME280;67556;55.656;12.590;2023-04-03T12:36:49;103454.06;;;7.29;29.38
78299;BME280;67556;55.656;12.590;2023-04-03T12:39:33;103466.28;;;7.37;30.65
78299;BME280;67556;55.656;12.590;2023-04-03T12:42:09;103460.97;;;7.37;30.04
78299;BME280;67556;55.656;12.590;2023-04-03T12:44:55;103461.75;;;7.55;29.73
78299;BME280;67556;55.656;12.590;2023-04-03T12:47:28;103452.41;;;7.89;30.12
78299;BME280;67556;55.656;12.590;2023-04-03T12:50:00;103445.53;;;8.21;31.00
78299;BME280;67556;55.656;12.590;2023-04-03T12:52:35;103449.53;;;8.27;31.24
78299;BME280;67556;55.656;12.590;2023-04-03T12:55:08;103440.66;;;8.57;29.11
78299;BME280;67556;55.656;12.590;2023-04-03T12:57:35;103439.56;;;8.75;27.67
78299;BME280;67556;55.656;12.590;2023-04-03T13:00:20;103439.09;;;9.11;27.73
78299;BME280;67556;55.656;12.590;2023-04-03T13:02:47;103435.59;;;9.12;28.69
78299;BME280;67556;55.656;12.590;2023-04-03T13:05:17;103435.63;;;9.44;29.07
78299;BME280;67556;55.656;12.590;2023-04-03T13:07:48;103427.50;;;9.43;26.79
78299;BME280;67556;55.656;12.590;2023-04-03T13:10:17;103427.94;;;9.37;27.00
78299;BME280;67556;55.656;12.590;2023-04-03T13:12:49;103430.22;;;9.77;28.14